KEZF

Shannon Airport

Fredericksburg, Virginia, USA
METAR KEZF 140035Z AUTO 00000KT 10SM OVC075 05/02 A3037 RMK AO2 T00530021
Observed Flight Rules
Dec-14 @ 00:35 UTC (33 minutes ago) Visual Flight Rules
Visibility Clouds
10 miles
  • Overcast at 7,500' AGL
Temperatures Readings
Current 5°C / 41°F
Dewpoint 2°C / 36°F
Humidity 81%
Altimeter 30.37" Hg
Pressure 1028 hPa
Elevation 26
METAR KEZF 140035Z AUTO 00000KT 10SM OVC075 05/02 A3037 RMK AO2 T00530021
Observed Flight Rules
Dec-14 @ 00:35 UTC
(33 minutes ago)
VFR
Clouds
  • Overcast at 7,500' AGL
Temperature Dewpoint
5°C / 41°F 2°C / 36°F
Humidity Altimeter Pressure
81% 30.37" Hg 1028 hPa